Time;durP1;ratioP1;P1;durP2;ratioP2;P2;SDS_P1;SDS_P2;PMS_P1;PMS_P2;Temp;Humidity;BMP_temperature;BMP_pressure;BME280_temperature;BME280_humidity;BME280_pressure;Samples;Min_cycle;Max_cycle;Signal;HPM_P1;HPM_P2
2022/05/04 00:01:19;;;;;;;155.82;24.83;;;;;;;;;;5040168;28;20048;-68
2022/05/04 00:03:52;;;;;;;113.57;24.23;;;;;;;;;;5038630;28;20383;-68
2022/05/04 00:06:26;;;;;;;166.73;25.65;;;;;;;;;;5037579;28;20040;-68
2022/05/04 00:08:51;;;;;;;127.65;23.63;;;;;;;;;;5039498;28;20550;-68
2022/05/04 00:11:24;;;;;;;131.05;25.25;;;;;;;;;;5038847;28;20033;-68
2022/05/04 00:13:56;;;;;;;147.35;23.83;;;;;;;;;;5038385;28;20036;-68
2022/05/04 00:16:21;;;;;;;131.50;21.73;;;;;;;;;;5036175;28;20034;-68
2022/05/04 00:18:54;;;;;;;122.32;22.90;;;;;;;;;;5036439;28;20025;-68
2022/05/04 00:21:26;;;;;;;113.60;23.30;;;;;;;;;;5027671;28;20124;-68
2022/05/04 00:23:51;;;;;;;133.32;22.83;;;;;;;;;;5039422;28;20040;-68
2022/05/04 00:26:23;;;;;;;136.20;22.77;;;;;;;;;;5031927;28;20048;-68
2022/05/04 00:28:55;;;;;;;126.68;22.85;;;;;;;;;;5037615;28;20064;-68
2022/05/04 00:31:21;;;;;;;130.45;26.33;;;;;;;;;;5041589;28;20033;-68
2022/05/04 00:33:53;;;;;;;143.77;25.83;;;;;;;;;;5036647;28;20056;-68
2022/05/04 00:36:25;;;;;;;144.90;24.65;;;;;;;;;;5035496;28;20056;-68
2022/05/04 00:38:50;;;;;;;167.10;24.38;;;;;;;;;;5039012;28;20115;-68
2022/05/04 00:41:23;;;;;;;152.77;24.27;;;;;;;;;;5054139;28;20595;-68
2022/05/04 00:43:55;;;;;;;138.30;25.05;;;;;;;;;;5039226;28;20037;-68
2022/05/04 00:46:22;;;;;;;135.75;24.25;;;;;;;;;;5037902;28;20061;-68
2022/05/04 00:48:55;;;;;;;161.65;24.92;;;;;;;;;;5035743;28;20040;-68
2022/05/04 00:51:27;;;;;;;131.30;23.58;;;;;;;;;;5034069;28;20380;-68
2022/05/04 00:53:53;;;;;;;144.70;24.73;;;;;;;;;;5035698;28;20037;-68
2022/05/04 00:56:26;;;;;;;163.40;24.85;;;;;;;;;;5035928;28;20025;-68
2022/05/04 00:58:58;;;;;;;147.43;23.20;;;;;;;;;;5037927;28;20116;-68
2022/05/04 01:01:35;;;;;;;138.15;23.38;;;;;;;;;;5032941;28;20052;-68
2022/05/04 01:04:07;;;;;;;135.20;23.30;;;;;;;;;;5034346;28;20026;-68
2022/05/04 01:06:33;;;;;;;126.55;22.40;;;;;;;;;;5026307;28;20061;-68
2022/05/04 01:09:05;;;;;;;141.10;24.58;;;;;;;;;;5036800;28;20052;-68
2022/05/04 01:11:37;;;;;;;160.23;25.80;;;;;;;;;;5037266;28;20042;-68
2022/05/04 01:14:03;;;;;;;142.15;24.60;;;;;;;;;;5033545;28;20029;-68
2022/05/04 01:16:36;;;;;;;162.70;26.52;;;;;;;;;;5026382;28;20120;-68
2022/05/04 01:19:09;;;;;;;160.80;26.75;;;;;;;;;;5038296;28;20087;-68
2022/05/04 01:21:35;;;;;;;138.20;24.65;;;;;;;;;;5047951;28;20044;-68
2022/05/04 01:24:07;;;;;;;169.55;25.08;;;;;;;;;;5039704;28;20385;-68
2022/05/04 01:26:39;;;;;;;159.40;24.83;;;;;;;;;;5038126;28;20095;-68
2022/05/04 01:29:05;;;;;;;176.45;25.80;;;;;;;;;;5023663;28;20040;-68
2022/05/04 01:31:38;;;;;;;171.20;26.80;;;;;;;;;;5029556;28;20025;-68
2022/05/04 01:34:10;;;;;;;126.47;23.08;;;;;;;;;;5034819;28;20440;-68
2022/05/04 01:36:35;;;;;;;136.55;25.35;;;;;;;;;;5028968;28;20038;-68
2022/05/04 01:39:07;;;;;;;126.63;23.75;;;;;;;;;;5034153;28;20036;-68
2022/05/04 01:44:51;;;;;;;139.77;23.05;;;;;;;;;;4984786;28;20050;-68
2022/05/04 01:47:23;;;;;;;150.57;24.23;;;;;;;;;;4988450;28;20057;-68
2022/05/04 01:49:48;;;;;;;120.60;24.58;;;;;;;;;;5014871;28;20041;-68
2022/05/04 01:52:21;;;;;;;142.05;25.42;;;;;;;;;;5035408;28;20495;-68
2022/05/04 01:54:53;;;;;;;163.52;24.83;;;;;;;;;;5030432;28;20087;-68
2022/05/04 01:57:28;;;;;;;153.32;23.83;;;;;;;;;;5033265;28;20112;-68
2022/05/04 02:00:00;;;;;;;138.30;21.77;;;;;;;;;;5035454;28;20061;-68
2022/05/04 02:02:26;;;;;;;138.05;22.00;;;;;;;;;;5038763;28;20054;-68
2022/05/04 02:04:58;;;;;;;181.20;24.55;;;;;;;;;;5026357;28;20030;-68
2022/05/04 02:07:30;;;;;;;176.95;23.73;;;;;;;;;;5033200;28;20037;-68
2022/05/04 02:09:56;;;;;;;151.95;22.00;;;;;;;;;;5056091;28;20065;-68
2022/05/04 02:12:29;;;;;;;132.45;21.83;;;;;;;;;;5033645;28;20025;-68
2022/05/04 02:15:03;;;;;;;108.65;21.17;;;;;;;;;;5040490;28;20095;-68
2022/05/04 02:17:28;;;;;;;130.43;21.35;;;;;;;;;;5033235;28;20037;-68
2022/05/04 02:20:00;;;;;;;119.07;21.38;;;;;;;;;;5035640;28;20064;-68
2022/05/04 02:22:32;;;;;;;121.88;21.60;;;;;;;;;;5030640;28;20473;-68
2022/05/04 02:24:57;;;;;;;130.27;21.27;;;;;;;;;;5042205;28;20485;-68
2022/05/04 02:27:30;;;;;;;158.50;20.83;;;;;;;;;;5032308;28;20044;-68
2022/05/04 02:30:02;;;;;;;150.23;21.73;;;;;;;;;;5042458;28;20033;-68
2022/05/04 02:32:28;;;;;;;120.78;22.20;;;;;;;;;;5035836;28;20389;-68
2022/05/04 02:37:54;;;;;;;175.52;24.02;;;;;;;;;;5032800;28;20064;-68
2022/05/04 02:40:29;;;;;;;138.30;21.92;;;;;;;;;;5033873;28;20046;-68
2022/05/04 02:43:03;;;;;;;167.05;22.38;;;;;;;;;;5021903;28;20065;-68
2022/05/04 02:45:36;;;;;;;135.32;22.27;;;;;;;;;;5036597;28;20048;-68
2022/05/04 02:48:08;;;;;;;187.68;23.00;;;;;;;;;;5039332;28;20091;-68
2022/05/04 02:50:35;;;;;;;133.00;21.83;;;;;;;;;;5034169;28;20045;-68
2022/05/04 02:53:07;;;;;;;159.93;23.10;;;;;;;;;;5065195;28;20025;-68
2022/05/04 02:55:39;;;;;;;174.57;25.10;;;;;;;;;;5043624;28;20040;-68
2022/05/04 02:58:05;;;;;;;143.32;22.08;;;;;;;;;;5069765;28;20040;-68
2022/05/04 03:00:37;;;;;;;126.22;21.95;;;;;;;;;;5044253;28;20033;-68
2022/05/04 03:03:10;;;;;;;127.95;20.65;;;;;;;;;;5029893;28;20136;-68
2022/05/04 03:05:36;;;;;;;144.35;20.73;;;;;;;;;;5037773;28;20040;-68
2022/05/04 03:08:08;;;;;;;143.40;21.15;;;;;;;;;;5034734;28;20029;-68
2022/05/04 03:13:34;;;;;;;150.45;21.70;;;;;;;;;;5039843;28;20044;-68
2022/05/04 03:16:06;;;;;;;124.38;20.83;;;;;;;;;;5037692;28;20052;-68
2022/05/04 03:18:38;;;;;;;132.32;21.38;;;;;;;;;;5037380;28;20036;-68
2022/05/04 03:21:03;;;;;;;124.30;21.25;;;;;;;;;;5036758;28;20041;-68
2022/05/04 03:23:35;;;;;;;117.53;20.70;;;;;;;;;;5039010;28;20036;-68
2022/05/04 03:26:07;;;;;;;139.13;22.60;;;;;;;;;;5040251;28;20029;-69
2022/05/04 03:28:32;;;;;;;138.23;23.00;;;;;;;;;;5039312;28;20180;-68
2022/05/04 03:31:04;;;;;;;148.60;22.40;;;;;;;;;;5040717;28;20520;-68
2022/05/04 03:33:36;;;;;;;156.80;23.40;;;;;;;;;;5037241;28;20644;-68
2022/05/04 03:36:01;;;;;;;157.15;21.25;;;;;;;;;;5042206;28;20579;-68
2022/05/04 03:38:33;;;;;;;119.50;20.85;;;;;;;;;;5037609;28;20108;-68
2022/05/04 03:41:06;;;;;;;125.63;21.08;;;;;;;;;;5036991;28;20041;-68
2022/05/04 03:43:31;;;;;;;124.85;20.88;;;;;;;;;;5031680;28;20091;-68
2022/05/04 03:46:25;;;;;;;133.82;20.73;;;;;;;;;;5041691;28;20037;-68
2022/05/04 03:48:55;;;;;;;125.45;21.52;;;;;;;;;;5036713;28;20401;-68
2022/05/04 03:51:34;;;;;;;148.65;24.02;;;;;;;;;;5033182;28;20029;-68
2022/05/04 03:53:59;;;;;;;166.02;23.90;;;;;;;;;;5040693;28;20067;-68
2022/05/04 03:56:24;;;;;;;164.45;23.02;;;;;;;;;;5028767;28;20057;-68
2022/05/04 03:59:03;;;;;;;150.07;24.00;;;;;;;;;;5038258;28;20125;-68
2022/05/04 04:01:28;;;;;;;157.15;23.75;;;;;;;;;;5052933;28;20754;-68
2022/05/04 04:04:15;;;;;;;156.90;24.83;;;;;;;;;;5033255;28;20480;-68
2022/05/04 04:06:40;;;;;;;130.23;21.67;;;;;;;;;;5024360;28;20042;-68
2022/05/04 04:09:06;;;;;;;143.85;21.80;;;;;;;;;;5035530;28;20037;-68
2022/05/04 04:11:44;;;;;;;176.23;23.60;;;;;;;;;;5048090;28;20060;-68
2022/05/04 04:14:09;;;;;;;135.13;21.27;;;;;;;;;;5037136;28;20038;-68
2022/05/04 04:16:35;;;;;;;143.00;24.00;;;;;;;;;;5036607;28;20030;-68
2022/05/04 04:19:14;;;;;;;137.43;21.23;;;;;;;;;;5036235;28;20033;-68
2022/05/04 04:21:52;;;;;;;131.13;20.83;;;;;;;;;;5032406;28;20045;-68
2022/05/04 04:24:31;;;;;;;132.32;20.48;;;;;;;;;;5044155;28;20033;-68
2022/05/04 04:26:56;;;;;;;118.57;21.17;;;;;;;;;;5061268;28;20393;-68
2022/05/04 04:29:21;;;;;;;135.48;21.67;;;;;;;;;;5043396;28;20032;-68
2022/05/04 04:32:00;;;;;;;128.30;21.63;;;;;;;;;;5044514;28;20033;-68
2022/05/04 04:34:25;;;;;;;115.70;19.98;;;;;;;;;;5038017;28;20034;-68
2022/05/04 04:36:51;;;;;;;112.57;20.55;;;;;;;;;;5036080;28;20591;-68
2022/05/04 04:39:29;;;;;;;145.70;22.10;;;;;;;;;;5038913;28;20060;-68
2022/05/04 04:41:54;;;;;;;120.60;20.42;;;;;;;;;;5034586;28;20041;-68
2022/05/04 04:44:19;;;;;;;115.50;20.88;;;;;;;;;;5036332;28;20029;-68
2022/05/04 04:46:58;;;;;;;130.10;21.95;;;;;;;;;;5034480;28;20389;-68
2022/05/04 04:49:25;;;;;;;125.40;21.45;;;;;;;;;;5043637;28;20074;-68
2022/05/04 04:51:50;;;;;;;134.00;21.77;;;;;;;;;;5023286;28;20029;-69
2022/05/04 04:54:29;;;;;;;128.50;20.50;;;;;;;;;;5043247;28;20035;-68
2022/05/04 04:56:54;;;;;;;112.78;20.13;;;;;;;;;;5037006;28;20121;-68
2022/05/04 04:59:19;;;;;;;124.90;20.17;;;;;;;;;;5042974;28;20108;-68
2022/05/04 05:01:58;;;;;;;106.93;19.73;;;;;;;;;;5034326;28;20473;-68
2022/05/04 05:04:23;;;;;;;121.90;18.80;;;;;;;;;;5035427;28;20112;-68
2022/05/04 05:06:48;;;;;;;110.25;18.38;;;;;;;;;;5035215;28;20120;-68
2022/05/04 05:09:27;;;;;;;119.25;19.17;;;;;;;;;;5035310;28;20040;-68
2022/05/04 05:11:52;;;;;;;108.53;18.95;;;;;;;;;;5035527;28;20034;-68
2022/05/04 05:17:15;;;;;;;120.07;18.88;;;;;;;;;;5034776;28;20519;-68
2022/05/04 05:19:40;;;;;;;112.72;18.75;;;;;;;;;;5034992;28;20504;-68
2022/05/04 05:22:06;;;;;;;113.05;18.85;;;;;;;;;;5035428;28;20029;-68
2022/05/04 05:24:45;;;;;;;96.18;19.10;;;;;;;;;;5034879;28;20061;-68
2022/05/04 05:27:10;;;;;;;128.13;19.55;;;;;;;;;;5035989;28;20041;-68
2022/05/04 05:29:36;;;;;;;126.20;18.90;;;;;;;;;;5035906;28;20094;-68
2022/05/04 05:32:15;;;;;;;125.90;19.98;;;;;;;;;;5035721;28;20028;-68
2022/05/04 05:34:40;;;;;;;118.55;19.38;;;;;;;;;;5039301;28;20033;-68
2022/05/04 05:37:06;;;;;;;109.32;20.52;;;;;;;;;;5036656;28;20026;-68
2022/05/04 05:39:44;;;;;;;128.10;20.70;;;;;;;;;;5035076;28;20033;-68
2022/05/04 05:42:09;;;;;;;152.32;20.52;;;;;;;;;;5034799;28;20038;-69
2022/05/04 05:44:35;;;;;;;103.82;19.17;;;;;;;;;;5039860;28;20075;-68
2022/05/04 05:47:14;;;;;;;117.07;19.98;;;;;;;;;;5034657;28;20037;-68
2022/05/04 05:49:39;;;;;;;128.07;20.20;;;;;;;;;;5040784;28;20034;-68
2022/05/04 05:52:22;;;;;;;115.90;19.50;;;;;;;;;;5034730;28;20036;-68
2022/05/04 05:54:47;;;;;;;93.00;17.63;;;;;;;;;;5034531;28;20504;-68
2022/05/04 05:57:13;;;;;;;97.78;18.88;;;;;;;;;;5027352;28;20100;-68
2022/05/04 05:59:51;;;;;;;94.68;19.45;;;;;;;;;;5039873;28;20100;-68
2022/05/04 06:02:16;;;;;;;108.07;20.67;;;;;;;;;;5034676;28;20038;-68
2022/05/04 06:04:42;;;;;;;111.63;21.20;;;;;;;;;;5030954;28;20112;-68
2022/05/04 06:07:21;;;;;;;112.07;20.67;;;;;;;;;;5030022;28;20029;-68
2022/05/04 06:09:46;;;;;;;103.80;21.08;;;;;;;;;;5024047;28;20033;-68
2022/05/04 06:12:12;;;;;;;83.40;19.65;;;;;;;;;;5043398;28;20532;-69
2022/05/04 06:14:50;;;;;;;86.70;18.67;;;;;;;;;;5033452;28;20044;-68
2022/05/04 06:17:15;;;;;;;110.88;19.05;;;;;;;;;;5032673;28;20525;-68
2022/05/04 06:19:41;;;;;;;82.07;18.17;;;;;;;;;;5033114;28;20113;-68
2022/05/04 06:22:20;;;;;;;98.30;18.85;;;;;;;;;;5033302;28;20393;-68
2022/05/04 06:24:45;;;;;;;99.20;17.90;;;;;;;;;;5033055;28;20030;-68
2022/05/04 06:27:11;;;;;;;80.43;18.45;;;;;;;;;;5033227;28;20030;-68
2022/05/04 06:35:32;;;;;;;90.28;19.70;;;;;;;;;;5032727;28;20040;-68
2022/05/04 06:37:57;;;;;;;89.70;22.35;;;;;;;;;;5032918;28;20037;-68
2022/05/04 06:40:23;;;;;;;91.15;21.05;;;;;;;;;;5033770;28;20026;-68
2022/05/04 06:43:01;;;;;;;94.25;20.67;;;;;;;;;;5035541;28;20037;-68
2022/05/04 06:45:27;;;;;;;75.85;20.75;;;;;;;;;;5031749;28;20040;-68
2022/05/04 06:47:52;;;;;;;83.35;21.90;;;;;;;;;;5032651;28;20456;-68
2022/05/04 06:50:31;;;;;;;69.97;19.52;;;;;;;;;;5032198;28;20026;-69
2022/05/04 06:52:56;;;;;;;69.05;19.73;;;;;;;;;;5025446;28;20033;-69
2022/05/04 06:55:22;;;;;;;68.72;20.08;;;;;;;;;;5021444;28;20371;-68
2022/05/04 06:58:01;;;;;;;65.50;20.15;;;;;;;;;;5025562;28;20104;-68
2022/05/04 07:00:26;;;;;;;65.90;18.95;;;;;;;;;;5028202;28;20041;-68
2022/05/04 07:02:52;;;;;;;66.50;19.95;;;;;;;;;;5011086;28;20041;-68
2022/05/04 07:05:31;;;;;;;56.90;18.33;;;;;;;;;;5025388;28;20045;-68
2022/05/04 07:07:56;;;;;;;69.68;19.08;;;;;;;;;;5027476;28;20036;-68
2022/05/04 07:10:22;;;;;;;61.00;18.85;;;;;;;;;;5029957;28;20022;-68
2022/05/04 07:13:01;;;;;;;70.57;20.45;;;;;;;;;;5027757;28;20036;-68
2022/05/04 07:15:26;;;;;;;61.13;19.17;;;;;;;;;;5023676;28;21481;-68
2022/05/04 07:17:52;;;;;;;63.00;18.08;;;;;;;;;;5033278;28;20034;-68
2022/05/04 07:20:31;;;;;;;61.55;18.63;;;;;;;;;;5029291;28;20411;-68
2022/05/04 07:22:56;;;;;;;69.40;20.00;;;;;;;;;;5030366;28;20075;-68
2022/05/04 07:25:22;;;;;;;56.83;17.88;;;;;;;;;;5029400;28;20029;-68
2022/05/04 07:28:01;;;;;;;63.00;17.63;;;;;;;;;;5029166;28;20033;-68
2022/05/04 07:30:27;;;;;;;56.15;18.63;;;;;;;;;;5029796;28;20040;-68
2022/05/04 07:32:52;;;;;;;60.33;19.23;;;;;;;;;;5030060;28;20029;-68
2022/05/04 07:35:31;;;;;;;56.40;17.92;;;;;;;;;;5029439;28;20067;-68
2022/05/04 07:37:56;;;;;;;55.92;18.50;;;;;;;;;;5028094;28;20041;-68
2022/05/04 07:43:20;;;;;;;50.28;17.50;;;;;;;;;;5027835;28;20036;-68
2022/05/04 07:45:45;;;;;;;47.08;16.98;;;;;;;;;;5027806;28;20037;-69
2022/05/04 07:48:10;;;;;;;53.25;18.60;;;;;;;;;;5029797;28;20076;-69
2022/05/04 07:50:49;;;;;;;56.10;17.65;;;;;;;;;;5030065;28;20481;-68
2022/05/04 07:53:14;;;;;;;45.53;16.67;;;;;;;;;;5029255;28;20091;-68
2022/05/04 07:55:40;;;;;;;43.80;15.90;;;;;;;;;;5026969;28;20022;-68
2022/05/04 07:58:18;;;;;;;57.70;18.63;;;;;;;;;;5029508;28;21036;-68
2022/05/04 08:06:24;;;;;;;49.47;17.38;;;;;;;;;;5028896;28;20589;-68
2022/05/04 08:09:03;;;;;;;43.90;15.85;;;;;;;;;;5029593;28;20108;-68
2022/05/04 08:11:28;;;;;;;41.33;15.57;;;;;;;;;;5030286;28;20091;-68
2022/05/04 08:13:54;;;;;;;32.72;13.88;;;;;;;;;;5018069;28;20465;-69
2022/05/04 08:16:32;;;;;;;28.40;13.57;;;;;;;;;;5028402;28;20412;-69
2022/05/04 08:18:59;;;;;;;21.45;12.35;;;;;;;;;;5029452;28;20049;-68
2022/05/04 08:21:24;;;;;;;22.88;12.27;;;;;;;;;;5029832;28;20083;-68
2022/05/04 08:24:03;;;;;;;23.48;12.25;;;;;;;;;;5028849;28;20037;-69
2022/05/04 08:26:28;;;;;;;21.83;12.43;;;;;;;;;;5029438;28;20750;-68
2022/05/04 08:28:54;;;;;;;22.65;12.02;;;;;;;;;;5028498;28;20033;-69
2022/05/04 08:31:33;;;;;;;21.98;12.73;;;;;;;;;;5028998;28;20112;-69
2022/05/04 08:33:58;;;;;;;20.33;12.63;;;;;;;;;;5028342;28;20068;-69
2022/05/04 08:36:24;;;;;;;19.25;12.38;;;;;;;;;;5031588;28;20025;-68
2022/05/04 08:39:03;;;;;;;24.17;12.95;;;;;;;;;;5026842;28;20072;-69
2022/05/04 08:41:28;;;;;;;21.95;12.48;;;;;;;;;;5027410;28;20496;-69
2022/05/04 08:43:55;;;;;;;21.33;12.43;;;;;;;;;;5039096;28;20029;-69
2022/05/04 08:46:34;;;;;;;19.58;12.38;;;;;;;;;;5025209;28;20037;-69
2022/05/04 08:49:01;;;;;;;21.95;12.80;;;;;;;;;;5029264;28;20091;-69
2022/05/04 08:51:27;;;;;;;20.73;12.70;;;;;;;;;;5022005;28;20037;-68
2022/05/04 08:54:05;;;;;;;20.33;12.15;;;;;;;;;;5022239;28;20036;-69
2022/05/04 08:56:34;;;;;;;18.63;11.80;;;;;;;;;;5029303;28;20041;-68
2022/05/04 08:59:14;;;;;;;23.92;12.05;;;;;;;;;;5019435;28;20029;-69
2022/05/04 09:01:39;;;;;;;18.92;12.05;;;;;;;;;;5024157;28;20065;-68
2022/05/04 09:04:06;;;;;;;17.15;12.55;;;;;;;;;;5022151;28;20564;-69
2022/05/04 09:06:50;;;;;;;15.32;11.25;;;;;;;;;;5026633;28;20029;-69
2022/05/04 09:09:16;;;;;;;12.57;7.80;;;;;;;;;;5024029;28;20556;-69
2022/05/04 09:11:55;;;;;;;12.68;8.05;;;;;;;;;;5025390;28;20036;-69
2022/05/04 09:14:25;;;;;;;10.13;7.10;;;;;;;;;;5025822;28;20537;-70
2022/05/04 09:17:04;;;;;;;8.48;6.68;;;;;;;;;;5025425;28;20029;-67
2022/05/04 09:19:29;;;;;;;12.00;7.10;;;;;;;;;;5025835;28;20392;-66
2022/05/04 09:21:55;;;;;;;9.48;6.47;;;;;;;;;;5024212;28;20033;-67
2022/05/04 09:24:35;;;;;;;9.52;4.97;;;;;;;;;;5025011;28;20112;-67
2022/05/04 09:27:01;;;;;;;6.68;5.35;;;;;;;;;;5025606;28;20048;-67
2022/05/04 09:29:46;;;;;;;6.53;5.25;;;;;;;;;;5025090;28;20029;-69
2022/05/04 09:32:13;;;;;;;6.72;5.13;;;;;;;;;;5021629;28;20052;-69
2022/05/04 09:34:39;;;;;;;11.45;6.32;;;;;;;;;;5024899;28;20721;-69
2022/05/04 09:45:57;;;;;;;8.18;5.72;;;;;;;;;;5018886;28;20350;-67
2022/05/04 09:48:40;;;;;;;8.45;5.00;;;;;;;;;;5025095;28;20025;-67
2022/05/04 09:51:08;;;;;;;5.85;3.53;;;;;;;;;;5024991;28;20112;-66
2022/05/04 09:53:47;;;;;;;4.68;3.45;;;;;;;;;;5024106;28;20707;-66
2022/05/04 09:56:12;;;;;;;4.65;3.42;;;;;;;;;;5021398;28;20060;-67
2022/05/04 09:58:38;;;;;;;3.80;2.90;;;;;;;;;;5021719;28;20045;-67
2022/05/04 10:01:17;;;;;;;4.00;3.05;;;;;;;;;;5024413;28;20480;-67
2022/05/04 10:03:43;;;;;;;5.47;3.60;;;;;;;;;;5018657;28;20200;-67
2022/05/04 10:06:09;;;;;;;6.93;3.50;;;;;;;;;;5024185;28;20031;-67
2022/05/04 10:08:48;;;;;;;5.93;3.53;;;;;;;;;;5051995;28;20033;-67
2022/05/04 10:11:14;;;;;;;6.72;3.53;;;;;;;;;;5020727;28;20036;-67
2022/05/04 10:13:39;;;;;;;5.70;4.30;;;;;;;;;;5024575;28;20044;-67
2022/05/04 10:16:19;;;;;;;4.40;3.22;;;;;;;;;;5037096;28;20033;-68
2022/05/04 10:18:46;;;;;;;5.22;3.63;;;;;;;;;;5032405;28;20049;-67
2022/05/04 10:21:19;;;;;;;4.72;2.75;;;;;;;;;;5020686;28;20440;-67
2022/05/04 10:23:54;;;;;;;;;;;;;;;;;;5026026;28;20049;-67
2022/05/04 10:26:34;;;;;;;3.47;2.75;;;;;;;;;;5025679;28;20384;-67
2022/05/04 10:31:59;;;;;;;5.05;2.63;;;;;;;;;;5024586;28;20054;-67
2022/05/04 10:34:31;;;;;;;5.03;2.63;;;;;;;;;;5025548;28;20038;-67
2022/05/04 10:37:03;;;;;;;3.58;2.20;;;;;;;;;;5024552;28;20139;-69
2022/05/04 10:39:28;;;;;;;3.53;2.30;;;;;;;;;;5026287;28;20068;-69
2022/05/04 10:42:01;;;;;;;7.05;2.95;;;;;;;;;;5025719;28;20111;-67
2022/05/04 10:44:56;;;;;;;5.68;2.83;;;;;;;;;;5025871;28;20080;-69
2022/05/04 10:47:32;;;;;;;4.97;3.10;;;;;;;;;;5025880;28;20080;-69
2022/05/04 10:50:05;;;;;;;7.03;2.55;;;;;;;;;;5023312;28;20455;-69
2022/05/04 10:52:31;;;;;;;3.58;2.60;;;;;;;;;;5025648;28;20091;-69
2022/05/04 10:55:08;;;;;;;8.57;2.67;;;;;;;;;;5025235;28;20029;-69
2022/05/04 10:57:41;;;;;;;5.60;3.00;;;;;;;;;;5025505;28;20040;-69
2022/05/04 11:00:07;;;;;;;;;;;;;;;;;;5026494;28;20060;-69
2022/05/04 11:02:39;;;;;;;4.75;2.70;;;;;;;;;;5024361;28;20318;-69
2022/05/04 11:05:13;;;;;;;4.85;3.00;;;;;;;;;;5020842;28;20029;-69
2022/05/04 11:07:38;;;;;;;5.82;3.08;;;;;;;;;;5021087;28;20427;-69
2022/05/04 11:10:11;;;;;;;5.63;3.30;;;;;;;;;;5025253;28;20036;-69
2022/05/04 11:12:43;;;;;;;6.57;3.17;;;;;;;;;;5025746;28;20049;-69
2022/05/04 11:15:09;;;;;;;4.28;3.33;;;;;;;;;;5027025;28;20037;-68
2022/05/04 11:17:41;;;;;;;5.22;3.60;;;;;;;;;;5021921;28;20370;-69
2022/05/04 11:20:13;;;;;;;5.25;3.00;;;;;;;;;;5029143;28;20084;-69
2022/05/04 11:22:39;;;;;;;4.93;3.28;;;;;;;;;;5028922;28;20108;-69
2022/05/04 11:25:12;;;;;;;6.38;3.08;;;;;;;;;;5029188;28;20163;-69
2022/05/04 11:27:44;;;;;;;4.80;3.33;;;;;;;;;;5029116;28;20045;-69
2022/05/04 11:30:13;;;;;;;5.47;2.88;;;;;;;;;;5029497;28;20084;-69
2022/05/04 11:32:46;;;;;;;6.55;2.85;;;;;;;;;;5029827;28;20044;-68
2022/05/04 11:35:18;;;;;;;5.63;2.70;;;;;;;;;;5029944;28;20029;-69
2022/05/04 11:37:44;;;;;;;5.90;3.05;;;;;;;;;;5026358;28;20048;-69
2022/05/04 11:40:19;;;;;;;6.72;3.10;;;;;;;;;;5028572;28;20030;-69
2022/05/04 11:42:50;;;;;;;4.72;2.90;;;;;;;;;;5027502;28;20037;-69
2022/05/04 11:45:17;;;;;;;6.25;3.10;;;;;;;;;;5027459;28;20041;-69
2022/05/04 11:47:51;;;;;;;4.07;2.67;;;;;;;;;;5025626;28;20041;-69
2022/05/04 11:50:23;;;;;;;6.72;3.55;;;;;;;;;;5030958;28;20040;-69
2022/05/04 11:52:49;;;;;;;6.70;3.08;;;;;;;;;;5019583;28;20040;-69
2022/05/04 11:55:21;;;;;;;4.95;3.25;;;;;;;;;;5029470;28;20025;-69
2022/05/04 11:57:53;;;;;;;6.78;3.60;;;;;;;;;;5028594;28;20041;-69
2022/05/04 12:00:18;;;;;;;6.63;3.58;;;;;;;;;;5027964;28;20057;-69
2022/05/04 12:02:51;;;;;;;5.95;3.70;;;;;;;;;;5030900;28;20104;-69
2022/05/04 12:05:23;;;;;;;9.65;3.80;;;;;;;;;;5034877;28;20210;-69
2022/05/04 12:07:49;;;;;;;8.20;3.63;;;;;;;;;;5027987;28;20040;-69
2022/05/04 12:10:21;;;;;;;8.10;3.42;;;;;;;;;;5027606;28;20033;-69
2022/05/04 12:12:54;;;;;;;4.93;3.43;;;;;;;;;;5027970;28;20107;-69
2022/05/04 12:15:30;;;;;;;6.07;3.42;;;;;;;;;;5027934;28;20037;-69
2022/05/04 12:18:05;;;;;;;5.97;3.75;;;;;;;;;;5027202;28;20037;-68
2022/05/04 12:20:37;;;;;;;5.30;4.00;;;;;;;;;;5028660;28;20140;-69
2022/05/04 12:23:10;;;;;;;7.70;3.60;;;;;;;;;;5018972;28;20033;-68
2022/05/04 12:25:35;;;;;;;5.55;3.10;;;;;;;;;;5025951;28;20029;-68
2022/05/04 12:28:07;;;;;;;5.25;3.42;;;;;;;;;;5027186;28;20461;-69
2022/05/04 12:33:42;;;;;;;6.70;2.80;;;;;;;;;;5025450;28;20412;-68
2022/05/04 12:36:17;;;;;;;3.65;2.28;;;;;;;;;;5028282;28;20044;-68
2022/05/04 12:38:49;;;;;;;3.55;2.30;;;;;;;;;;5028345;28;20034;-69
2022/05/04 12:41:22;;;;;;;5.32;2.65;;;;;;;;;;5027735;28;20052;-69
2022/05/04 12:43:56;;;;;;;4.72;2.50;;;;;;;;;;5021365;28;20500;-69
2022/05/04 12:46:29;;;;;;;;;;;;;;;;;;5027362;28;20073;-69
2022/05/04 12:48:54;;;;;;;6.25;2.05;;;;;;;;;;5027532;28;19917;-69
2022/05/04 12:51:27;;;;;;;5.22;2.10;;;;;;;;;;5028183;28;20041;-69
2022/05/04 12:53:59;;;;;;;4.15;1.67;;;;;;;;;;5026702;28;20388;-69
2022/05/04 12:59:22;;;;;;;;;;;;;;;;;;5027210;28;20389;-69
2022/05/04 13:01:47;;;;;;;3.95;1.77;;;;;;;;;;5024088;28;19928;-68
2022/05/04 13:04:15;;;;;;;3.92;1.70;;;;;;;;;;5025857;28;20053;-69
2022/05/04 13:06:54;;;;;;;3.70;1.80;;;;;;;;;;5026489;28;20476;-69
2022/05/04 13:09:20;;;;;;;4.00;1.75;;;;;;;;;;5026856;28;20045;-69
2022/05/04 13:11:45;;;;;;;3.92;1.80;;;;;;;;;;5026013;28;20034;-69
2022/05/04 13:14:24;;;;;;;3.17;1.80;;;;;;;;;;5026494;28;20037;-69
2022/05/04 13:16:50;;;;;;;5.75;1.80;;;;;;;;;;5019827;28;20030;-69
2022/05/04 13:19:16;;;;;;;5.07;2.20;;;;;;;;;;5025925;28;20385;-69
2022/05/04 13:21:55;;;;;;;3.72;1.60;;;;;;;;;;5019879;28;20026;-69
2022/05/04 13:24:20;;;;;;;4.13;1.98;;;;;;;;;;5023653;28;20039;-69
2022/05/04 13:26:46;;;;;;;3.50;1.83;;;;;;;;;;5025732;28;20038;-68
2022/05/04 13:29:24;;;;;;;3.75;2.35;;;;;;;;;;5022058;28;20025;-69
2022/05/04 13:31:49;;;;;;;4.53;1.92;;;;;;;;;;5026159;28;20124;-68
2022/05/04 13:34:15;;;;;;;4.50;2.00;;;;;;;;;;5026272;28;20576;-68
2022/05/04 13:36:54;;;;;;;5.78;2.53;;;;;;;;;;5026524;28;20021;-68
2022/05/04 13:39:20;;;;;;;5.75;2.10;;;;;;;;;;5023346;28;20069;-68
2022/05/04 13:41:45;;;;;;;4.97;2.25;;;;;;;;;;5025543;28;20049;-68
2022/05/04 13:44:24;;;;;;;3.47;2.40;;;;;;;;;;5026863;28;20030;-68
2022/05/04 13:46:49;;;;;;;4.35;2.10;;;;;;;;;;5018754;28;20179;-68
2022/05/04 13:49:15;;;;;;;3.65;2.00;;;;;;;;;;5025801;28;20100;-68
2022/05/04 13:54:37;;;;;;;4.55;2.08;;;;;;;;;;5025735;28;20610;-68
2022/05/04 13:57:16;;;;;;;5.78;1.60;;;;;;;;;;5025510;28;20116;-68
2022/05/04 13:59:42;;;;;;;3.55;1.65;;;;;;;;;;5025631;28;20094;-68
2022/05/04 14:02:08;;;;;;;2.65;1.35;;;;;;;;;;5024589;28;20033;-68
2022/05/04 14:04:46;;;;;;;6.32;1.90;;;;;;;;;;5026062;28;20493;-68
2022/05/04 14:07:11;;;;;;;3.42;1.60;;;;;;;;;;5025098;28;20436;-69
2022/05/04 14:09:37;;;;;;;2.88;1.50;;;;;;;;;;5026021;28;20191;-68
2022/05/04 14:12:15;;;;;;;3.50;1.20;;;;;;;;;;5024977;28;20033;-68
2022/05/04 14:17:37;;;;;;;2.17;1.20;;;;;;;;;;5025770;28;20099;-68
2022/05/04 14:20:03;;;;;;;2.80;1.17;;;;;;;;;;5020034;28;20473;-69
2022/05/04 14:22:28;;;;;;;4.65;1.17;;;;;;;;;;5025934;28;20101;-69
2022/05/04 14:25:07;;;;;;;1.73;0.88;;;;;;;;;;5018712;28;20301;-68
2022/05/04 14:27:32;;;;;;;1.77;0.80;;;;;;;;;;5025513;28;20049;-69
2022/05/04 14:29:58;;;;;;;2.92;1.13;;;;;;;;;;5025124;28;20036;-69
2022/05/04 14:32:37;;;;;;;2.72;0.90;;;;;;;;;;5015593;28;20033;-69
2022/05/04 14:35:03;;;;;;;1.50;0.75;;;;;;;;;;5023213;28;20045;-68
2022/05/04 14:37:30;;;;;;;2.13;0.90;;;;;;;;;;5025338;28;20061;-68
2022/05/04 14:40:09;;;;;;;1.63;0.75;;;;;;;;;;5025025;28;20109;-69
2022/05/04 14:42:34;;;;;;;4.22;0.90;;;;;;;;;;5025064;28;20051;-68
2022/05/04 14:45:00;;;;;;;3.42;0.80;;;;;;;;;;5025257;28;20108;-68
2022/05/04 14:47:38;;;;;;;1.05;0.68;;;;;;;;;;5024548;28;20040;-68
2022/05/04 14:50:04;;;;;;;2.58;1.20;;;;;;;;;;5026491;28;20064;-68
2022/05/04 14:52:29;;;;;;;2.83;1.10;;;;;;;;;;5022305;28;20469;-68
2022/05/04 14:55:08;;;;;;;3.33;1.00;;;;;;;;;;5029076;28;20108;-68
2022/05/04 14:57:33;;;;;;;7.53;1.30;;;;;;;;;;5028532;28;20042;-68
2022/05/04 14:59:59;;;;;;;1.08;0.70;;;;;;;;;;5029193;28;20034;-68
2022/05/04 15:05:01;;;;;;;1.80;0.80;;;;;;;;;;5025414;28;20077;-69
2022/05/04 15:05:23;;;;;;;1.27;0.70;;;;;;;;;;5028600;28;20432;-68
2022/05/04 15:08:02;;;;;;;4.55;0.90;;;;;;;;;;5026793;28;20048;-69
2022/05/04 15:10:28;;;;;;;1.92;0.70;;;;;;;;;;5028130;28;20069;-68
2022/05/04 15:12:53;;;;;;;2.95;0.70;;;;;;;;;;5022727;28;20385;-69
2022/05/04 15:15:32;;;;;;;1.70;0.80;;;;;;;;;;5028748;28;20033;-68
2022/05/04 15:17:57;;;;;;;1.67;0.85;;;;;;;;;;5030164;28;20043;-69
2022/05/04 15:20:39;;;;;;;1.23;0.70;;;;;;;;;;5028118;28;20033;-68
2022/05/04 15:23:04;;;;;;;2.53;0.80;;;;;;;;;;5027188;28;20378;-68
2022/05/04 15:25:30;;;;;;;1.65;0.90;;;;;;;;;;5028217;28;20060;-68
2022/05/04 15:28:08;;;;;;;1.77;0.80;;;;;;;;;;5021032;28;20033;-68
2022/05/04 15:30:35;;;;;;;1.60;0.80;;;;;;;;;;5028195;28;20076;-68
2022/05/04 15:33:01;;;;;;;1.20;0.70;;;;;;;;;;5026294;28;20358;-68